Leonding, Austria
Current Conditions -  °F | °C
As of 2:20 PM on Sunday 21 Dec 2014 (Local Time) from LOWL Reporting Station
Broken Clouds Broken Clouds  
Wind Chill: 35°   Ceiling: 3200
Heat Index: 43°   Visibility: 6mi
Dew Point: 34°   Wind: 18mph
Humidity: 70%   Direction: 270°W
Pressure: 30.42"   Gusts: NA
Location:  48.28°N, 14.23°E
Report Text: LOWL 211220Z 27016KT 9999 FEW022 SCT026 BKN032 06/01 Q1030 NOSIG
Loading
Personal Weather Stations






























Interactive Weather Map New forecast layout! Learn more

10-Day Weather Forecast

Advertisements
Track Severe Weather on mobile